createdAt,value
2023-03-29T00:01:35.699Z,80832.63
2023-03-29T00:03:17.891Z,80818.56
2023-03-29T00:04:59.273Z,80833.41
2023-03-29T00:06:40.580Z,80837.91
2023-03-29T00:08:21.895Z,80830.38
2023-03-29T00:10:03.193Z,80822.88
2023-03-29T00:11:44.492Z,80813.13
2023-03-29T00:13:25.776Z,80809.44
2023-03-29T00:15:07.056Z,80827.53
2023-03-29T00:16:48.393Z,80838.38
2023-03-29T00:18:29.732Z,80832.69
2023-03-29T00:20:11.010Z,80823.66
2023-03-29T00:21:52.319Z,80827.38
2023-03-29T00:23:33.613Z,80842.97
2023-03-29T00:25:14.914Z,80795.88
2023-03-29T00:26:56.218Z,80815.50
2023-03-29T00:28:37.524Z,80825.69
2023-03-29T00:30:18.810Z,80816.94
2023-03-29T00:32:00.126Z,80812.59
2023-03-29T00:33:41.471Z,80807.25
2023-03-29T00:35:22.873Z,80820.28
2023-03-29T00:37:04.182Z,80809.19
2023-03-29T00:38:45.554Z,80791.16
2023-03-29T00:40:26.876Z,80773.94
2023-03-29T00:42:08.146Z,80783.78
2023-03-29T00:43:49.491Z,80766.66
2023-03-29T00:45:30.788Z,80764.22
2023-03-29T00:47:12.080Z,80745.84
2023-03-29T00:48:53.426Z,80744.84
2023-03-29T00:50:34.703Z,80737.63
2023-03-29T00:52:15.977Z,80731.97
2023-03-29T00:53:57.301Z,80740.47
2023-03-29T00:55:38.628Z,80736.34
2023-03-29T00:57:19.972Z,80737.13
2023-03-29T00:59:01.286Z,80729.31
2023-03-29T01:00:42.591Z,80724.06
2023-03-29T01:02:23.944Z,80728.81
2023-03-29T01:04:05.357Z,80727.13
2023-03-29T01:05:46.773Z,80716.34
2023-03-29T01:07:28.106Z,80705.28
2023-03-29T01:09:09.449Z,80707.69
2023-03-29T01:10:50.761Z,80706.81
2023-03-29T01:12:32.102Z,80687.94
2023-03-29T01:14:13.393Z,80693.25
2023-03-29T01:15:54.726Z,80669.34
2023-03-29T01:17:36.132Z,80670.00
2023-03-29T01:19:17.414Z,80661.88
2023-03-29T01:20:58.706Z,80674.53
2023-03-29T01:22:39.984Z,80672.81
2023-03-29T01:24:21.297Z,80675.28
2023-03-29T01:26:02.641Z,80673.09
2023-03-29T01:27:43.938Z,80685.22
2023-03-29T01:29:25.291Z,80699.59
2023-03-29T01:31:06.629Z,80690.22
2023-03-29T01:32:47.994Z,80698.63
2023-03-29T01:34:29.321Z,80709.25
2023-03-29T01:36:10.774Z,80702.63
2023-03-29T01:37:52.150Z,80727.09
2023-03-29T01:39:33.440Z,80725.91
2023-03-29T01:41:14.751Z,80749.22
2023-03-29T01:42:56.038Z,80750.75
2023-03-29T01:44:37.333Z,80733.59
2023-03-29T01:46:18.720Z,80731.63
2023-03-29T01:48:00.106Z,80754.75
2023-03-29T01:49:41.453Z,80753.97
2023-03-29T01:51:22.758Z,80756.28
2023-03-29T01:53:04.081Z,80753.63
2023-03-29T01:54:45.396Z,80744.44
2023-03-29T01:56:26.714Z,80747.50
2023-03-29T01:58:07.994Z,80748.06
2023-03-29T01:59:49.280Z,80737.00
2023-03-29T02:01:30.637Z,80735.25
2023-03-29T02:03:12.014Z,80746.28
2023-03-29T02:04:53.354Z,80757.59
2023-03-29T02:06:34.686Z,80769.47
2023-03-29T02:08:15.977Z,80777.41
2023-03-29T02:09:57.245Z,80805.53
2023-03-29T02:11:38.574Z,80811.44
2023-03-29T02:13:19.865Z,80803.38
2023-03-29T02:15:01.216Z,80805.81
2023-03-29T02:16:42.541Z,80791.75
2023-03-29T02:18:23.830Z,80792.88
2023-03-29T02:20:05.111Z,80789.53
2023-03-29T02:21:46.412Z,80780.44
2023-03-29T02:23:27.708Z,80794.00
2023-03-29T02:25:09.026Z,80807.19
2023-03-29T02:26:50.351Z,80800.31
2023-03-29T02:28:31.696Z,80790.41
2023-03-29T02:30:13.082Z,80803.88
2023-03-29T02:31:54.356Z,80797.34
2023-03-29T02:33:35.651Z,80792.78
2023-03-29T02:35:16.938Z,80789.13
2023-03-29T02:36:58.249Z,80784.31
2023-03-29T02:38:39.517Z,80764.91
2023-03-29T02:40:20.857Z,80755.97
2023-03-29T02:42:02.203Z,80741.41
2023-03-29T02:43:43.480Z,80742.66
2023-03-29T02:45:24.728Z,80733.00
2023-03-29T02:47:06.079Z,80711.47
2023-03-29T02:48:47.411Z,80715.78
2023-03-29T02:50:28.718Z,80702.84
2023-03-29T02:52:10.002Z,80696.53
2023-03-29T02:53:51.278Z,80699.09
2023-03-29T02:55:32.558Z,80697.03
2023-03-29T02:57:13.901Z,80695.28
2023-03-29T02:58:55.293Z,80680.91
2023-03-29T03:00:36.810Z,80682.19
2023-03-29T03:02:18.131Z,80694.69
2023-03-29T03:03:59.492Z,80703.56
2023-03-29T03:05:40.801Z,80687.16
2023-03-29T03:07:22.122Z,80670.72
2023-03-29T03:09:03.465Z,80667.84
2023-03-29T03:10:44.743Z,80679.22
2023-03-29T03:12:26.021Z,80680.38
2023-03-29T03:14:07.326Z,80684.22
2023-03-29T03:15:48.585Z,80676.28
2023-03-29T03:17:29.935Z,80665.84
2023-03-29T03:19:11.271Z,80674.44
2023-03-29T03:20:52.549Z,80675.91
2023-03-29T03:22:33.882Z,80671.78
2023-03-29T03:24:15.203Z,80694.91
2023-03-29T03:25:56.518Z,80705.81
2023-03-29T03:27:37.792Z,80711.25
2023-03-29T03:29:19.087Z,80718.31
2023-03-29T03:31:00.580Z,80722.50
2023-03-29T03:32:42.104Z,80727.75
2023-03-29T03:34:23.438Z,80739.44
2023-03-29T03:36:04.755Z,80763.84
2023-03-29T03:37:46.102Z,80767.56
2023-03-29T03:39:27.370Z,80759.06
2023-03-29T03:41:08.643Z,80747.50
2023-03-29T03:42:49.929Z,80738.56
2023-03-29T03:44:31.240Z,80721.38
2023-03-29T03:46:12.562Z,80725.69
2023-03-29T03:47:53.922Z,80720.00
2023-03-29T03:49:35.199Z,80720.56
2023-03-29T03:51:16.477Z,80717.59
2023-03-29T03:52:57.825Z,80706.59
2023-03-29T03:54:39.095Z,80719.22
2023-03-29T03:56:20.406Z,80730.25
2023-03-29T03:58:01.737Z,80732.81
2023-03-29T03:59:42.995Z,80730.63
2023-03-29T04:01:24.268Z,80719.75
2023-03-29T04:03:05.745Z,80712.06
2023-03-29T04:04:47.213Z,80721.91
2023-03-29T04:06:28.475Z,80730.91
2023-03-29T04:08:09.764Z,80738.91
2023-03-29T04:09:51.053Z,80730.00
2023-03-29T04:11:32.334Z,80744.91
2023-03-29T04:13:13.640Z,80739.31
2023-03-29T04:14:54.934Z,80748.59
2023-03-29T04:16:36.206Z,80742.25
2023-03-29T04:18:17.575Z,80739.97
2023-03-29T04:19:58.938Z,80736.22
2023-03-29T04:21:40.256Z,80734.50
2023-03-29T04:23:21.566Z,80742.06
2023-03-29T04:25:02.861Z,80735.59
2023-03-29T04:26:44.134Z,80725.50
2023-03-29T04:28:25.414Z,80738.25
2023-03-29T04:30:06.736Z,80753.31
2023-03-29T04:31:48.081Z,80764.56
2023-03-29T04:33:29.390Z,80764.00
2023-03-29T04:35:10.698Z,80770.47
2023-03-29T04:36:51.984Z,80774.31
2023-03-29T04:38:33.289Z,80778.44
2023-03-29T04:40:14.570Z,80784.25
2023-03-29T04:41:55.866Z,80768.88
2023-03-29T04:43:39.639Z,80770.34
2023-03-29T04:45:21.499Z,80760.88
2023-03-29T04:47:03.004Z,80780.88
2023-03-29T04:48:44.312Z,80769.63
2023-03-29T04:50:25.587Z,80768.66
2023-03-29T04:52:06.861Z,80771.34
2023-03-29T04:53:48.155Z,80777.00
2023-03-29T04:55:29.480Z,80775.28
2023-03-29T04:57:10.808Z,80771.38
2023-03-29T04:58:52.101Z,80771.81
2023-03-29T05:00:33.407Z,80761.81
2023-03-29T05:02:14.789Z,80757.31
2023-03-29T05:03:56.159Z,80770.47
2023-03-29T05:05:37.501Z,80772.56
2023-03-29T05:07:18.777Z,80769.41
2023-03-29T05:09:00.037Z,80769.94
2023-03-29T05:10:41.358Z,80754.88
2023-03-29T05:12:22.638Z,80761.88
2023-03-29T05:14:03.949Z,80747.31
2023-03-29T05:15:45.248Z,80761.53
2023-03-29T05:17:26.606Z,80773.00
2023-03-29T05:19:07.952Z,80762.75
2023-03-29T05:20:49.272Z,80757.00
2023-03-29T05:22:30.565Z,80758.09
2023-03-29T05:24:11.826Z,80753.47
2023-03-29T05:25:53.093Z,80731.22
2023-03-29T05:27:34.381Z,80719.41
2023-03-29T05:29:15.668Z,80732.28
2023-03-29T05:30:56.961Z,80752.09
2023-03-29T05:32:38.328Z,80752.09
2023-03-29T05:34:20.046Z,80750.94
2023-03-29T05:36:02.045Z,80742.56
2023-03-29T05:37:43.417Z,80752.31
2023-03-29T05:39:24.729Z,80730.84
2023-03-29T05:41:06.048Z,80733.81
2023-03-29T05:42:47.394Z,80741.66
2023-03-29T05:44:28.708Z,80743.28
2023-03-29T05:46:10.060Z,80726.03
2023-03-29T05:47:51.417Z,80737.38
2023-03-29T05:49:32.764Z,80758.19
2023-03-29T05:51:14.084Z,80774.56
2023-03-29T05:52:55.379Z,80781.38
2023-03-29T05:54:36.705Z,80761.09
2023-03-29T05:56:18.017Z,80736.53
2023-03-29T05:57:59.321Z,80733.88
2023-03-29T05:59:40.663Z,80746.13
2023-03-29T06:01:21.953Z,80729.31
2023-03-29T06:03:13.638Z,80731.19
2023-03-29T06:04:59.177Z,80729.16
2023-03-29T06:06:40.517Z,80741.94
2023-03-29T06:08:21.854Z,80760.16
2023-03-29T06:10:03.205Z,80744.50
2023-03-29T06:11:44.527Z,80726.09
2023-03-29T06:13:25.804Z,80731.94
2023-03-29T06:15:07.134Z,80744.00
2023-03-29T06:16:48.478Z,80771.28
2023-03-29T06:18:29.791Z,80779.06
2023-03-29T06:20:12.021Z,80777.34
2023-03-29T06:21:53.378Z,80792.94
2023-03-29T06:23:34.782Z,80786.06
2023-03-29T06:25:16.289Z,80773.56
2023-03-29T06:26:57.570Z,80761.81
2023-03-29T06:28:38.884Z,80777.75
2023-03-29T06:30:20.208Z,80778.44
2023-03-29T06:32:01.536Z,80789.22
2023-03-29T06:33:42.872Z,80793.72
2023-03-29T06:35:24.170Z,80797.47
2023-03-29T06:37:05.534Z,80796.47
2023-03-29T06:38:46.868Z,80783.97
2023-03-29T06:40:28.171Z,80780.56
2023-03-29T06:42:20.035Z,80778.03
2023-03-29T06:44:02.231Z,80798.38
2023-03-29T06:45:43.496Z,80806.63
2023-03-29T06:47:24.815Z,80808.72
2023-03-29T06:49:06.137Z,80815.66
2023-03-29T06:50:47.406Z,80815.91
2023-03-29T06:52:28.717Z,80795.91
2023-03-29T06:54:10.027Z,80800.38
2023-03-29T06:55:51.350Z,80803.38
2023-03-29T06:57:32.680Z,80808.53
2023-03-29T06:59:14.031Z,80815.03
2023-03-29T07:00:55.333Z,80818.34
2023-03-29T07:02:36.714Z,80816.78
2023-03-29T07:04:18.309Z,80817.78
2023-03-29T07:05:59.700Z,80825.13
2023-03-29T07:07:41.064Z,80816.31
2023-03-29T07:09:22.371Z,80803.00
2023-03-29T07:11:03.998Z,80788.63
2023-03-29T07:12:45.579Z,80793.38
2023-03-29T07:14:26.885Z,80777.22
2023-03-29T07:16:08.256Z,80772.16
2023-03-29T07:17:49.635Z,80809.72
2023-03-29T07:19:31.057Z,80825.16
2023-03-29T07:21:12.403Z,80807.91
2023-03-29T07:22:53.909Z,80796.09
2023-03-29T07:24:35.171Z,80811.84
2023-03-29T07:26:28.572Z,80818.94
2023-03-29T07:28:10.711Z,80817.09
2023-03-29T07:29:51.987Z,80820.22
2023-03-29T07:31:33.290Z,80816.13
2023-03-29T07:33:14.716Z,80823.03
2023-03-29T07:34:56.132Z,80838.34
2023-03-29T07:36:37.430Z,80828.34
2023-03-29T07:38:18.775Z,80822.91
2023-03-29T07:40:00.117Z,80814.50
2023-03-29T07:41:41.460Z,80824.56
2023-03-29T07:43:22.740Z,80833.09
2023-03-29T07:45:04.136Z,80842.34
2023-03-29T07:46:45.576Z,80851.13
2023-03-29T07:48:26.863Z,80867.00
2023-03-29T07:50:08.286Z,80873.63
2023-03-29T07:51:49.617Z,80882.53
2023-03-29T07:53:30.913Z,80880.38
2023-03-29T07:55:12.261Z,80885.75
2023-03-29T07:56:53.598Z,80890.41
2023-03-29T07:58:34.904Z,80886.16
2023-03-29T08:00:16.728Z,80882.63
2023-03-29T08:01:58.368Z,80886.59
2023-03-29T08:03:39.700Z,80874.06
2023-03-29T08:05:29.126Z,80877.97
2023-03-29T08:07:17.040Z,80875.25
2023-03-29T08:09:00.127Z,80873.97
2023-03-29T08:10:41.662Z,80874.03
2023-03-29T08:12:24.972Z,80886.38
2023-03-29T08:14:06.386Z,80883.09
2023-03-29T08:15:47.661Z,80871.78
2023-03-29T08:17:29.123Z,80877.94
2023-03-29T08:19:10.427Z,80879.25
2023-03-29T08:20:51.719Z,80887.84
2023-03-29T08:22:33.057Z,80896.06
2023-03-29T08:24:14.392Z,80874.75
2023-03-29T08:25:55.673Z,80883.97
2023-03-29T08:27:37.084Z,80880.59
2023-03-29T08:29:18.405Z,80889.09
2023-03-29T08:30:59.961Z,80873.50
2023-03-29T08:32:41.588Z,80861.50
2023-03-29T08:34:22.906Z,80864.97
2023-03-29T08:36:04.248Z,80859.25
2023-03-29T08:37:45.593Z,80865.28
2023-03-29T08:39:26.892Z,80859.38
2023-03-29T08:41:08.164Z,80863.50
2023-03-29T08:42:49.459Z,80865.78
2023-03-29T08:44:30.755Z,80862.91
2023-03-29T08:46:12.097Z,80847.47
2023-03-29T08:47:53.583Z,80860.84
2023-03-29T08:49:34.973Z,80867.56
2023-03-29T08:51:16.265Z,80881.22
2023-03-29T08:52:57.573Z,80872.59
2023-03-29T08:54:38.935Z,80885.91
2023-03-29T08:56:20.254Z,80881.81
2023-03-29T08:58:01.521Z,80874.53
2023-03-29T08:59:42.829Z,80871.63
2023-03-29T09:01:24.141Z,80881.22
2023-03-29T09:03:05.487Z,80887.88
2023-03-29T09:04:46.819Z,80883.81
2023-03-29T09:06:28.205Z,80879.66
2023-03-29T09:08:09.541Z,80880.28
2023-03-29T09:09:50.904Z,80878.38
2023-03-29T09:11:32.193Z,80870.91
2023-03-29T09:13:13.513Z,80869.06
2023-03-29T09:14:54.865Z,80864.75
2023-03-29T09:16:36.259Z,80866.34
2023-03-29T09:18:17.600Z,80865.47
2023-03-29T09:19:58.967Z,80870.06
2023-03-29T09:21:40.278Z,80866.06
2023-03-29T09:23:21.550Z,80863.16
2023-03-29T09:25:02.874Z,80861.03
2023-03-29T09:26:44.185Z,80862.94
2023-03-29T09:28:25.485Z,80873.72
2023-03-29T09:30:06.811Z,80875.16
2023-03-29T09:31:48.185Z,80867.25
2023-03-29T09:33:29.482Z,80874.19
2023-03-29T09:35:10.780Z,80873.78
2023-03-29T09:36:52.065Z,80879.25
2023-03-29T09:38:33.377Z,80890.13
2023-03-29T09:40:14.671Z,80894.03
2023-03-29T09:41:55.982Z,80906.16
2023-03-29T09:43:37.293Z,80907.84
2023-03-29T09:45:18.600Z,80916.38
2023-03-29T09:46:59.878Z,80921.31
2023-03-29T09:48:41.199Z,80931.72
2023-03-29T09:50:31.032Z,80945.94
2023-03-29T09:52:13.415Z,80950.44
2023-03-29T09:53:54.765Z,80956.34
2023-03-29T09:55:36.081Z,80961.25
2023-03-29T09:57:17.615Z,80964.19
2023-03-29T09:58:58.945Z,80970.44
2023-03-29T10:00:40.400Z,80975.94
2023-03-29T10:02:21.731Z,80958.13
2023-03-29T10:04:03.154Z,80955.84
2023-03-29T10:05:44.499Z,80953.81
2023-03-29T10:07:25.801Z,80961.38
2023-03-29T10:09:07.095Z,80963.72
2023-03-29T10:10:48.415Z,80950.31
2023-03-29T10:12:29.692Z,80936.59
2023-03-29T10:14:11.008Z,80935.66
2023-03-29T10:15:52.303Z,80938.84
2023-03-29T10:17:33.674Z,80922.72
2023-03-29T10:19:14.961Z,80926.88
2023-03-29T10:20:56.478Z,80928.72
2023-03-29T10:22:38.012Z,80927.16
2023-03-29T10:24:19.528Z,80909.34
2023-03-29T10:26:00.890Z,80903.63
2023-03-29T10:27:42.168Z,80905.66
2023-03-29T10:29:23.492Z,80904.03
2023-03-29T10:31:04.952Z,80902.50
2023-03-29T10:32:46.493Z,80901.44
2023-03-29T10:34:27.838Z,80892.22
2023-03-29T10:36:09.200Z,80903.53
2023-03-29T10:37:50.940Z,80912.94
2023-03-29T10:39:32.566Z,80912.91
2023-03-29T10:41:13.892Z,80898.47
2023-03-29T10:42:55.177Z,80901.47
2023-03-29T10:44:36.541Z,80896.16
2023-03-29T10:46:17.979Z,80895.22
2023-03-29T10:47:59.416Z,80893.09
2023-03-29T10:49:40.849Z,80904.41
2023-03-29T10:51:22.125Z,80900.50
2023-03-29T10:53:03.453Z,80889.84
2023-03-29T10:54:44.875Z,80883.50
2023-03-29T10:56:26.177Z,80883.72
2023-03-29T10:58:07.470Z,80887.63
2023-03-29T10:59:48.802Z,80870.78
2023-03-29T11:01:30.146Z,80879.00
2023-03-29T11:03:13.110Z,80872.63
2023-03-29T11:04:56.504Z,80872.63
2023-03-29T11:06:37.810Z,80872.75
2023-03-29T11:08:19.124Z,80874.47
2023-03-29T11:10:00.424Z,80882.78
2023-03-29T11:11:41.744Z,80888.31
2023-03-29T11:13:23.032Z,80907.75
2023-03-29T11:15:06.338Z,80909.28
2023-03-29T11:16:47.941Z,80921.31
2023-03-29T11:18:29.253Z,80932.94
2023-03-29T11:20:10.528Z,80936.84
2023-03-29T11:21:51.958Z,80932.13
2023-03-29T11:23:33.234Z,80930.63
2023-03-29T11:25:14.552Z,80946.84
2023-03-29T11:26:55.913Z,80943.75
2023-03-29T11:28:37.309Z,80949.88
2023-03-29T11:30:18.612Z,80965.16
2023-03-29T11:32:00.060Z,80957.97
2023-03-29T11:33:41.460Z,80945.91
2023-03-29T11:35:22.745Z,80953.31
2023-03-29T11:37:04.048Z,80947.97
2023-03-29T11:38:45.553Z,80950.97
2023-03-29T11:40:26.918Z,80947.16
2023-03-29T11:42:08.239Z,80959.16
2023-03-29T11:43:49.592Z,80954.47
2023-03-29T11:45:30.893Z,80957.03
2023-03-29T11:47:12.175Z,80957.50
2023-03-29T11:48:53.460Z,80964.63
2023-03-29T11:50:36.629Z,80970.28
2023-03-29T11:52:18.168Z,80968.56
2023-03-29T11:53:59.462Z,80976.78
2023-03-29T11:55:40.750Z,80975.53
2023-03-29T11:57:22.118Z,80980.78
2023-03-29T11:59:03.456Z,80982.94
2023-03-29T12:00:44.864Z,80986.31
2023-03-29T12:02:26.245Z,81001.66
2023-03-29T12:04:07.605Z,80989.84
2023-03-29T12:05:49.014Z,80986.31
2023-03-29T12:07:30.307Z,80988.66
2023-03-29T12:09:11.576Z,80989.41
2023-03-29T12:10:52.891Z,80982.72
2023-03-29T12:12:34.212Z,80986.72
2023-03-29T12:14:15.486Z,80974.47
2023-03-29T12:15:56.794Z,80980.44
2023-03-29T12:17:38.155Z,80973.88
2023-03-29T12:19:19.452Z,80979.63
2023-03-29T12:21:00.810Z,80982.13
2023-03-29T12:22:42.164Z,80988.00
2023-03-29T12:24:23.446Z,80993.94
2023-03-29T12:26:04.832Z,80992.69
2023-03-29T12:27:46.148Z,80992.63
2023-03-29T12:29:27.460Z,80990.44
2023-03-29T12:31:08.765Z,80992.31
2023-03-29T12:32:50.119Z,81004.47
2023-03-29T12:34:31.413Z,81003.38
2023-03-29T12:36:12.793Z,81005.28
2023-03-29T12:37:54.160Z,81003.06
2023-03-29T12:39:35.476Z,80999.66
2023-03-29T12:41:16.833Z,81001.03
2023-03-29T12:42:58.136Z,80999.50
2023-03-29T12:44:39.414Z,80991.03
2023-03-29T12:46:20.777Z,80995.28
2023-03-29T12:48:02.170Z,81003.13
2023-03-29T12:49:43.496Z,81007.19
2023-03-29T12:51:24.770Z,80993.47
2023-03-29T12:53:06.126Z,80978.53
2023-03-29T12:54:47.423Z,80991.09
2023-03-29T12:56:28.708Z,80986.50
2023-03-29T12:58:10.019Z,80979.25
2023-03-29T12:59:51.328Z,80973.66
2023-03-29T13:01:32.828Z,80979.13
2023-03-29T13:03:14.241Z,80989.47
2023-03-29T13:04:55.866Z,80983.72
2023-03-29T13:06:37.327Z,80973.44
2023-03-29T13:08:18.591Z,80974.47
2023-03-29T13:09:59.912Z,80975.53
2023-03-29T13:11:41.226Z,80988.59
2023-03-29T13:13:22.492Z,80987.34
2023-03-29T13:15:04.086Z,80982.13
2023-03-29T13:16:45.376Z,80974.78
2023-03-29T13:18:26.646Z,80983.06
2023-03-29T13:20:07.976Z,80992.78
2023-03-29T13:21:49.253Z,80986.94
2023-03-29T13:23:30.541Z,80992.25
2023-03-29T13:25:11.869Z,80978.13
2023-03-29T13:26:53.159Z,80973.97
2023-03-29T13:28:34.708Z,80989.88
2023-03-29T13:30:16.381Z,80995.91
2023-03-29T13:31:57.690Z,81002.78
2023-03-29T13:33:38.985Z,81001.66
2023-03-29T13:35:20.287Z,81007.34
2023-03-29T13:37:01.600Z,81007.97
2023-03-29T13:38:42.874Z,81015.72
2023-03-29T13:40:24.193Z,81015.81
2023-03-29T13:42:05.577Z,81017.88
2023-03-29T13:43:46.886Z,81022.88
2023-03-29T13:45:28.183Z,81026.44
2023-03-29T13:47:09.532Z,81019.00
2023-03-29T13:48:50.887Z,81023.00
2023-03-29T13:50:32.313Z,81029.38
2023-03-29T13:52:13.577Z,81019.56
2023-03-29T13:53:54.883Z,81017.84
2023-03-29T13:55:38.204Z,81032.34
2023-03-29T13:57:19.797Z,81027.56
2023-03-29T13:59:01.140Z,81024.28
2023-03-29T14:00:42.514Z,81008.75
2023-03-29T14:02:23.934Z,81005.47
2023-03-29T14:04:05.290Z,81011.81
2023-03-29T14:05:46.571Z,81017.38
2023-03-29T14:07:27.882Z,81008.03
2023-03-29T14:09:09.168Z,81011.00
2023-03-29T14:10:50.435Z,81015.16
2023-03-29T14:12:31.736Z,81008.59
2023-03-29T14:14:13.072Z,81003.78
2023-03-29T14:15:54.373Z,81000.72
2023-03-29T14:17:35.664Z,81008.50
2023-03-29T14:19:17.101Z,81005.91
2023-03-29T14:20:58.404Z,81000.41
2023-03-29T14:22:39.721Z,81005.75
2023-03-29T14:24:21.115Z,80993.72
2023-03-29T14:26:02.522Z,80989.19
2023-03-29T14:27:43.907Z,81000.78
2023-03-29T14:29:25.672Z,81007.16
2023-03-29T14:31:07.040Z,80998.47
2023-03-29T14:32:48.383Z,81001.63
2023-03-29T14:34:29.785Z,81000.03
2023-03-29T14:36:11.196Z,80999.84
2023-03-29T14:37:52.541Z,81007.06
2023-03-29T14:39:33.796Z,81016.19
2023-03-29T14:41:15.167Z,81018.19
2023-03-29T14:42:56.464Z,81008.16
2023-03-29T14:44:37.746Z,81006.81
2023-03-29T14:46:19.124Z,81005.38
2023-03-29T14:48:00.490Z,81002.09
2023-03-29T14:49:41.760Z,80994.06
2023-03-29T14:51:23.071Z,80990.47
2023-03-29T14:53:04.368Z,80979.28
2023-03-29T14:54:45.661Z,80983.22
2023-03-29T14:56:26.951Z,80976.13
2023-03-29T14:58:10.100Z,80976.06
2023-03-29T14:59:52.394Z,80971.09
2023-03-29T15:01:33.717Z,80972.34
2023-03-29T15:03:15.187Z,80979.31
2023-03-29T15:04:56.643Z,80972.41
2023-03-29T15:06:37.938Z,80973.31
2023-03-29T15:08:19.256Z,80977.56
2023-03-29T15:10:00.664Z,80977.56
2023-03-29T15:11:42.022Z,80967.63
2023-03-29T15:13:23.330Z,80949.47
2023-03-29T15:15:04.680Z,80948.88
2023-03-29T15:16:45.960Z,80955.84
2023-03-29T15:18:27.319Z,80947.06
2023-03-29T15:20:08.701Z,80935.38
2023-03-29T15:21:50.047Z,80939.72
2023-03-29T15:23:31.328Z,80942.31
2023-03-29T15:25:12.668Z,80933.59
2023-03-29T15:26:53.965Z,80929.34
2023-03-29T15:28:35.248Z,80924.75
2023-03-29T15:30:16.623Z,80925.94
2023-03-29T15:31:57.976Z,80921.94
2023-03-29T15:33:39.393Z,80926.19
2023-03-29T15:35:20.800Z,80921.84
2023-03-29T15:37:02.111Z,80919.03
2023-03-29T15:38:44.929Z,80920.88
2023-03-29T15:40:26.594Z,80919.94
2023-03-29T15:42:07.931Z,80910.81
2023-03-29T15:43:49.239Z,80916.56
2023-03-29T15:45:30.562Z,80919.09
2023-03-29T15:47:11.858Z,80910.34
2023-03-29T15:48:53.150Z,80904.72
2023-03-29T15:50:34.468Z,80900.34
2023-03-29T15:52:16.968Z,80906.47
2023-03-29T15:53:58.221Z,80901.66
2023-03-29T15:55:39.540Z,80901.06
2023-03-29T15:57:20.964Z,80896.03
2023-03-29T15:59:02.338Z,80885.47
2023-03-29T16:00:43.724Z,80889.19
2023-03-29T16:02:25.111Z,80888.28
2023-03-29T16:04:06.442Z,80887.91
2023-03-29T16:05:47.735Z,80881.09
2023-03-29T16:07:29.015Z,80871.88
2023-03-29T16:09:10.324Z,80874.56
2023-03-29T16:10:51.657Z,80859.56
2023-03-29T16:12:32.969Z,80870.09
2023-03-29T16:14:14.280Z,80878.53
2023-03-29T16:15:55.606Z,80875.41
2023-03-29T16:17:36.931Z,80876.44
2023-03-29T16:19:18.398Z,80875.19
2023-03-29T16:20:59.709Z,80869.13
2023-03-29T16:22:41.514Z,80879.50
2023-03-29T16:24:22.775Z,80872.06
2023-03-29T16:26:04.136Z,80881.09
2023-03-29T16:27:45.891Z,80880.06
2023-03-29T16:29:27.514Z,80884.94
2023-03-29T16:31:08.889Z,80878.00
2023-03-29T16:32:50.314Z,80877.94
2023-03-29T16:34:31.752Z,80887.88
2023-03-29T16:36:13.118Z,80875.91
2023-03-29T16:37:54.462Z,80876.31
2023-03-29T16:39:35.784Z,80868.00
2023-03-29T16:41:17.085Z,80866.81
2023-03-29T16:42:58.399Z,80865.84
2023-03-29T16:44:39.683Z,80861.25
2023-03-29T16:48:02.288Z,80864.75
2023-03-29T16:49:45.776Z,80864.75
2023-03-29T16:51:27.228Z,80857.38
2023-03-29T16:53:08.526Z,80850.66
2023-03-29T16:54:49.864Z,80855.28
2023-03-29T16:56:31.198Z,80854.50
2023-03-29T16:58:12.540Z,80845.91
2023-03-29T16:59:53.795Z,80840.09
2023-03-29T17:01:35.175Z,80838.16
2023-03-29T17:03:16.573Z,80841.34
2023-03-29T17:04:57.878Z,80848.41
2023-03-29T17:06:39.183Z,80851.41
2023-03-29T17:08:20.514Z,80843.81
2023-03-29T17:10:01.793Z,80856.63
2023-03-29T17:11:43.156Z,80858.00
2023-03-29T17:13:24.519Z,80847.06
2023-03-29T17:15:05.819Z,80846.72
2023-03-29T17:16:47.235Z,80853.06
2023-03-29T17:18:28.560Z,80852.63
2023-03-29T17:20:09.914Z,80858.25
2023-03-29T17:21:51.219Z,80852.72
2023-03-29T17:23:32.533Z,80854.22
2023-03-29T17:25:13.850Z,80851.84
2023-03-29T17:26:55.162Z,80853.59
2023-03-29T17:28:36.459Z,80854.91
2023-03-29T17:30:17.748Z,80853.16
2023-03-29T17:31:59.084Z,80852.47
2023-03-29T17:33:40.366Z,80850.69
2023-03-29T17:35:21.665Z,80843.50
2023-03-29T17:37:03.005Z,80840.47
2023-03-29T17:38:44.313Z,80840.78
2023-03-29T17:40:25.615Z,80844.16
2023-03-29T17:42:06.985Z,80843.88
2023-03-29T17:43:48.312Z,80850.81
2023-03-29T17:45:29.612Z,80855.56
2023-03-29T17:47:10.912Z,80848.97
2023-03-29T17:48:52.222Z,80850.06
2023-03-29T17:50:33.531Z,80844.25
2023-03-29T17:52:14.817Z,80852.56
2023-03-29T17:53:56.094Z,80847.16
2023-03-29T17:55:37.493Z,80852.06
2023-03-29T17:57:19.482Z,80843.16
2023-03-29T17:59:00.968Z,80851.66
2023-03-29T18:00:42.358Z,80849.97
2023-03-29T18:02:23.774Z,80850.22
2023-03-29T18:04:05.144Z,80852.47
2023-03-29T18:05:46.483Z,80843.56
2023-03-29T18:07:27.805Z,80848.09
2023-03-29T18:09:09.094Z,80849.75
2023-03-29T18:10:50.393Z,80853.50
2023-03-29T18:12:32.635Z,80849.88
2023-03-29T18:14:14.061Z,80851.19
2023-03-29T18:15:55.424Z,80856.22
2023-03-29T18:17:36.769Z,80854.81
2023-03-29T18:19:18.521Z,80857.25
2023-03-29T18:20:59.987Z,80855.03
2023-03-29T18:22:41.337Z,80853.75
2023-03-29T18:24:22.671Z,80842.25
2023-03-29T18:26:04.168Z,80847.66
2023-03-29T18:27:45.676Z,80847.44
2023-03-29T18:29:26.975Z,80847.38
2023-03-29T18:31:08.292Z,80846.94
2023-03-29T18:32:49.649Z,80842.03
2023-03-29T18:34:30.963Z,80842.22
2023-03-29T18:36:13.567Z,80846.13
2023-03-29T18:37:55.136Z,80854.09
2023-03-29T18:39:36.421Z,80864.38
2023-03-29T18:41:17.742Z,80861.63
2023-03-29T18:42:59.148Z,80862.06
2023-03-29T18:44:40.522Z,80855.06
2023-03-29T18:46:21.867Z,80853.84
2023-03-29T18:48:03.169Z,80849.97
2023-03-29T18:49:44.523Z,80853.28
2023-03-29T18:51:25.845Z,80856.13
2023-03-29T18:53:07.127Z,80869.00
2023-03-29T18:54:48.438Z,80878.25
2023-03-29T18:56:29.738Z,80874.50
2023-03-29T18:58:11.010Z,80866.63
2023-03-29T18:59:52.323Z,80874.47
2023-03-29T19:01:33.646Z,80877.09
2023-03-29T19:03:15.031Z,80882.19
2023-03-29T19:04:56.606Z,80881.56
2023-03-29T19:06:37.881Z,80874.75
2023-03-29T19:08:19.170Z,80861.28
2023-03-29T19:10:00.560Z,80861.03
2023-03-29T19:11:41.881Z,80868.28
2023-03-29T19:13:23.187Z,80873.09
2023-03-29T19:15:04.512Z,80879.34
2023-03-29T19:16:46.100Z,80885.97
2023-03-29T19:18:27.688Z,80875.59
2023-03-29T19:20:09.006Z,80877.19
2023-03-29T19:21:50.296Z,80886.06
2023-03-29T19:23:31.577Z,80884.25
2023-03-29T19:25:12.870Z,80883.69
2023-03-29T19:26:54.140Z,80878.09
2023-03-29T19:28:35.464Z,80882.75
2023-03-29T19:30:16.754Z,80880.53
2023-03-29T19:31:58.117Z,80875.75
2023-03-29T19:33:39.397Z,80877.44
2023-03-29T19:35:20.732Z,80876.28
2023-03-29T19:37:02.105Z,80878.56
2023-03-29T19:38:45.790Z,80878.06
2023-03-29T19:40:27.086Z,80881.47
2023-03-29T19:42:08.427Z,80883.22
2023-03-29T19:43:49.708Z,80879.88
2023-03-29T19:45:30.979Z,80880.94
2023-03-29T19:47:12.284Z,80880.50
2023-03-29T19:48:53.643Z,80876.06
2023-03-29T19:50:34.946Z,80880.88
2023-03-29T19:52:16.280Z,80890.69
2023-03-29T19:53:57.637Z,80895.38